createdAt,value
2023-02-24T00:00:33.688Z,11.71
2023-02-24T00:03:11.251Z,11.22
2023-02-24T00:05:44.243Z,11.64
2023-02-24T00:08:14.022Z,11.47
2023-02-24T00:10:42.710Z,11.14
2023-02-24T00:13:12.197Z,11.32
2023-02-24T00:15:40.548Z,11.51
2023-02-24T00:18:09.073Z,11.31
2023-02-24T00:20:37.374Z,11.31
2023-02-24T00:23:09.791Z,11.11
2023-02-24T00:25:39.505Z,11.13
2023-02-24T00:28:08.854Z,11.33
2023-02-24T00:30:37.161Z,11.69
2023-02-24T00:33:06.620Z,11.36
2023-02-24T00:35:35.107Z,11.11
2023-02-24T00:38:03.529Z,11.19
2023-02-24T00:40:32.123Z,10.77
2023-02-24T00:43:02.538Z,11.60
2023-02-24T00:45:33.862Z,11.28
2023-02-24T00:48:04.531Z,11.24
2023-02-24T00:50:33.588Z,11.22
2023-02-24T00:53:01.852Z,11.40
2023-02-24T00:55:36.230Z,11.42
2023-02-24T00:58:07.318Z,11.62
2023-02-24T01:00:38.890Z,11.51
2023-02-24T01:03:07.466Z,11.60
2023-02-24T01:05:38.085Z,11.09
2023-02-24T01:08:06.772Z,11.33
2023-02-24T01:10:35.592Z,11.23
2023-02-24T01:13:02.950Z,11.34
2023-02-24T01:15:32.556Z,10.84
2023-02-24T01:18:04.089Z,10.90
2023-02-24T01:20:33.087Z,11.11
2023-02-24T01:23:03.464Z,11.08
2023-02-24T01:25:31.888Z,11.04
2023-02-24T01:28:00.529Z,10.98
2023-02-24T01:30:29.019Z,10.86
2023-02-24T01:33:01.670Z,10.46
2023-02-24T01:35:34.754Z,11.17
2023-02-24T01:38:03.044Z,11.23
2023-02-24T01:40:33.634Z,10.95
2023-02-24T01:43:01.937Z,10.85
2023-02-24T01:45:36.618Z,11.43
2023-02-24T01:48:09.635Z,10.94
2023-02-24T01:50:39.011Z,10.98
2023-02-24T01:53:09.553Z,11.11
2023-02-24T01:55:42.778Z,11.14
2023-02-24T01:58:22.151Z,11.23
2023-02-24T02:00:51.654Z,11.00
2023-02-24T02:03:35.084Z,11.50
2023-02-24T02:06:07.756Z,10.88
2023-02-24T02:08:40.965Z,11.18
2023-02-24T02:11:12.012Z,10.88
2023-02-24T02:13:45.951Z,10.93
2023-02-24T02:16:37.156Z,10.61
2023-02-24T02:19:34.653Z,10.98
2023-02-24T02:22:35.204Z,10.80
2023-02-24T02:25:15.126Z,10.98
2023-02-24T02:28:31.480Z,11.09
2023-02-24T02:31:25.964Z,10.97
2023-02-24T02:34:17.537Z,10.78
2023-02-24T02:36:56.965Z,10.61
2023-02-24T02:39:34.259Z,10.77
2023-02-24T02:42:14.262Z,10.92
2023-02-24T02:44:55.902Z,10.79
2023-02-24T02:47:32.837Z,11.06
2023-02-24T02:50:09.296Z,10.86
2023-02-24T02:52:43.733Z,11.03
2023-02-24T02:55:18.401Z,11.09
2023-02-24T02:57:51.855Z,11.03
2023-02-24T03:00:24.527Z,11.04
2023-02-24T03:02:58.560Z,10.80
2023-02-24T03:05:33.130Z,11.24
2023-02-24T03:08:11.300Z,10.55
2023-02-24T03:10:44.702Z,10.94
2023-02-24T03:13:16.381Z,11.20
2023-02-24T03:15:48.012Z,10.52
2023-02-24T03:18:20.737Z,10.78
2023-02-24T03:20:53.225Z,10.88
2023-02-24T03:23:26.873Z,10.78
2023-02-24T03:26:00.371Z,10.22
2023-02-24T03:28:37.327Z,10.52
2023-02-24T03:31:11.003Z,10.10
2023-02-24T03:33:44.721Z,10.45
2023-02-24T03:36:15.106Z,10.24
2023-02-24T03:38:49.407Z,10.51
2023-02-24T03:41:21.286Z,10.87
2023-02-24T03:43:52.070Z,10.37
2023-02-24T03:46:20.544Z,10.55
2023-02-24T03:48:58.186Z,10.62
2023-02-24T03:51:27.909Z,10.37
2023-02-24T03:54:05.659Z,10.31
2023-02-24T03:56:47.464Z,10.58
2023-02-24T03:59:27.936Z,10.24
2023-02-24T04:02:04.999Z,10.15
2023-02-24T04:04:45.111Z,10.57
2023-02-24T04:07:38.515Z,10.51
2023-02-24T04:10:15.233Z,10.71
2023-02-24T04:12:52.844Z,10.60
2023-02-24T04:15:29.093Z,10.45
2023-02-24T04:18:01.571Z,10.29
2023-02-24T04:20:39.748Z,10.00
2023-02-24T04:23:18.351Z,10.27
2023-02-24T04:25:52.079Z,10.05
2023-02-24T04:28:23.400Z,10.20
2023-02-24T04:30:55.607Z,10.71
2023-02-24T04:33:24.545Z,9.85
2023-02-24T04:35:55.329Z,10.23
2023-02-24T04:38:26.285Z,10.33
2023-02-24T04:40:55.483Z,10.49
2023-02-24T04:43:24.187Z,10.31
2023-02-24T04:45:52.552Z,9.93
2023-02-24T04:48:21.435Z,9.58
2023-02-24T04:50:55.016Z,9.77
2023-02-24T04:53:27.113Z,10.21
2023-02-24T04:56:08.245Z,10.27
2023-02-24T04:58:38.590Z,9.68
2023-02-24T05:01:10.526Z,9.92
2023-02-24T05:03:42.423Z,10.15
2023-02-24T05:06:17.247Z,9.92
2023-02-24T05:08:45.719Z,10.20
2023-02-24T05:11:18.313Z,9.98
2023-02-24T05:13:47.213Z,10.17
2023-02-24T05:16:20.183Z,10.32
2023-02-24T05:18:48.780Z,10.35
2023-02-24T05:21:36.589Z,10.24
2023-02-24T05:24:06.977Z,10.75
2023-02-24T05:26:38.605Z,10.77
2023-02-24T05:29:08.705Z,10.03
2023-02-24T05:31:39.412Z,10.57
2023-02-24T05:34:09.151Z,10.30
2023-02-24T05:36:40.373Z,10.18
2023-02-24T05:39:12.281Z,10.45
2023-02-24T05:41:44.008Z,9.95
2023-02-24T05:44:16.056Z,9.59
2023-02-24T05:46:46.597Z,9.57
2023-02-24T05:49:17.498Z,9.65
2023-02-24T05:51:54.572Z,9.66
2023-02-24T05:54:25.807Z,10.10
2023-02-24T05:56:56.928Z,10.31
2023-02-24T05:59:32.571Z,9.94
2023-02-24T06:02:06.929Z,9.89
2023-02-24T06:04:46.606Z,9.81
2023-02-24T06:07:19.724Z,9.75
2023-02-24T06:09:49.874Z,10.26
2023-02-24T06:12:21.174Z,10.29
2023-02-24T06:14:49.566Z,9.63
2023-02-24T06:17:18.909Z,9.89
2023-02-24T06:19:50.305Z,9.89
2023-02-24T06:22:20.461Z,10.41
2023-02-24T06:24:49.646Z,10.06
2023-02-24T06:27:21.643Z,10.19
2023-02-24T06:29:51.419Z,9.81
2023-02-24T06:32:21.408Z,9.94
2023-02-24T06:34:53.725Z,10.05
2023-02-24T06:37:23.052Z,9.80
2023-02-24T06:39:53.762Z,9.98
2023-02-24T06:42:23.650Z,10.30
2023-02-24T06:44:52.002Z,10.17
2023-02-24T06:47:22.621Z,9.72
2023-02-24T06:49:51.476Z,9.70
2023-02-24T06:52:19.817Z,10.14
2023-02-24T06:54:49.682Z,10.24
2023-02-24T06:57:18.365Z,9.77
2023-02-24T06:59:48.815Z,10.04
2023-02-24T07:02:18.450Z,10.13
2023-02-24T07:04:47.502Z,9.61
2023-02-24T07:07:17.250Z,10.21
2023-02-24T07:09:45.815Z,9.87
2023-02-24T07:12:15.518Z,10.05
2023-02-24T07:14:43.984Z,9.81
2023-02-24T07:17:14.760Z,9.57
2023-02-24T07:19:44.065Z,9.53
2023-02-24T07:22:14.611Z,9.63
2023-02-24T07:24:46.209Z,9.96
2023-02-24T07:27:22.200Z,9.26
2023-02-24T07:29:53.505Z,9.94
2023-02-24T07:32:25.203Z,10.00
2023-02-24T07:34:53.650Z,10.24
2023-02-24T07:37:23.584Z,10.32
2023-02-24T07:39:52.326Z,9.70
2023-02-24T07:42:22.949Z,9.95
2023-02-24T07:44:55.858Z,9.56
2023-02-24T07:47:26.467Z,10.07
2023-02-24T07:49:55.365Z,10.07
2023-02-24T07:52:23.697Z,9.83
2023-02-24T07:54:52.039Z,9.48
2023-02-24T07:57:20.346Z,9.98
2023-02-24T07:59:50.705Z,9.68
2023-02-24T08:02:18.994Z,10.57
2023-02-24T08:04:59.540Z,10.35
2023-02-24T08:07:30.337Z,10.40
2023-02-24T08:10:24.428Z,10.47
2023-02-24T08:13:02.964Z,10.22
2023-02-24T08:15:34.840Z,10.64
2023-02-24T08:18:05.887Z,10.33
2023-02-24T08:20:51.324Z,10.58
2023-02-24T08:23:19.967Z,10.13
2023-02-24T08:25:48.397Z,10.10
2023-02-24T08:28:17.419Z,10.35
2023-02-24T08:30:46.621Z,10.63
2023-02-24T08:33:19.607Z,10.29
2023-02-24T08:35:53.011Z,10.56
2023-02-24T08:38:25.874Z,10.83
2023-02-24T08:40:58.548Z,10.56
2023-02-24T08:43:34.628Z,10.15
2023-02-24T08:46:12.608Z,9.95
2023-02-24T08:48:43.292Z,10.76
2023-02-24T08:51:17.763Z,10.41
2023-02-24T08:53:47.628Z,11.10
2023-02-24T08:56:24.124Z,10.65
2023-02-24T08:58:57.962Z,10.65
2023-02-24T09:01:34.286Z,10.44
2023-02-24T09:04:05.522Z,10.64
2023-02-24T09:06:43.874Z,10.22
2023-02-24T09:09:20.854Z,10.73
2023-02-24T09:11:55.722Z,10.84
2023-02-24T09:14:28.439Z,10.82
2023-02-24T09:17:06.828Z,10.71
2023-02-24T09:20:01.548Z,10.87
2023-02-24T09:22:32.761Z,10.62
2023-02-24T09:25:17.567Z,10.10
2023-02-24T09:27:48.128Z,10.30
2023-02-24T09:30:35.866Z,10.15
2023-02-24T09:33:20.995Z,10.63
2023-02-24T09:35:52.776Z,10.37
2023-02-24T09:38:46.073Z,9.80
2023-02-24T09:41:32.928Z,10.32
2023-02-24T09:44:07.415Z,10.29
2023-02-24T09:46:42.337Z,10.75
2023-02-24T09:49:18.200Z,10.27
2023-02-24T09:51:53.328Z,10.58
2023-02-24T09:54:24.617Z,9.90
2023-02-24T09:57:08.316Z,10.43
2023-02-24T10:00:01.226Z,10.11
2023-02-24T10:02:44.421Z,10.08
2023-02-24T10:05:24.745Z,9.55
2023-02-24T10:07:57.087Z,9.56
2023-02-24T10:10:29.867Z,10.08
2023-02-24T10:13:14.789Z,10.21
2023-02-24T10:16:05.945Z,9.90
2023-02-24T10:18:43.175Z,10.31
2023-02-24T10:21:30.589Z,9.90
2023-02-24T10:24:09.326Z,10.02
2023-02-24T10:27:00.141Z,10.37
2023-02-24T10:29:50.798Z,10.32
2023-02-24T10:32:24.134Z,10.04
2023-02-24T10:34:54.183Z,10.41
2023-02-24T10:37:29.417Z,10.71
2023-02-24T10:40:00.157Z,10.32
2023-02-24T10:42:32.550Z,9.95
2023-02-24T10:45:17.849Z,10.46
2023-02-24T10:47:56.300Z,10.47
2023-02-24T10:50:30.303Z,10.69
2023-02-24T10:53:26.635Z,10.28
2023-02-24T10:56:15.264Z,10.19
2023-02-24T10:58:56.763Z,10.71
2023-02-24T11:01:40.721Z,10.19
2023-02-24T11:04:22.921Z,10.39
2023-02-24T11:06:55.633Z,10.76
2023-02-24T11:09:35.342Z,10.81
2023-02-24T11:12:25.453Z,10.88
2023-02-24T11:15:15.639Z,11.23
2023-02-24T11:17:50.935Z,10.66
2023-02-24T11:20:29.462Z,11.53
2023-02-24T11:23:08.433Z,10.94
2023-02-24T11:25:40.265Z,10.63
2023-02-24T11:28:20.992Z,10.80
2023-02-24T11:30:59.152Z,11.01
2023-02-24T11:33:36.271Z,10.87
2023-02-24T11:36:13.163Z,12.00
2023-02-24T11:38:46.296Z,10.95
2023-02-24T11:41:22.851Z,11.33
2023-02-24T11:43:58.931Z,11.41
2023-02-24T11:46:40.292Z,11.16
2023-02-24T11:49:26.387Z,11.19
2023-02-24T11:51:59.880Z,11.26
2023-02-24T11:54:37.426Z,12.21
2023-02-24T11:57:07.978Z,11.64
2023-02-24T11:59:40.823Z,12.42
2023-02-24T12:02:20.999Z,11.93
2023-02-24T12:04:58.322Z,11.89
2023-02-24T12:07:32.380Z,11.57
2023-02-24T12:10:16.223Z,12.05
2023-02-24T12:12:52.516Z,11.77
2023-02-24T12:15:25.606Z,12.23
2023-02-24T12:18:07.268Z,11.93
2023-02-24T12:20:41.851Z,12.52
2023-02-24T12:23:23.104Z,12.59
2023-02-24T12:26:06.805Z,12.00
2023-02-24T12:28:52.357Z,12.23
2023-02-24T12:31:32.124Z,11.77
2023-02-24T12:34:09.602Z,12.06
2023-02-24T12:36:55.317Z,12.08
2023-02-24T12:39:31.776Z,12.32
2023-02-24T12:42:13.630Z,12.87
2023-02-24T12:44:50.984Z,11.87
2023-02-24T12:47:27.723Z,12.40
2023-02-24T12:50:11.871Z,12.07
2023-02-24T12:52:53.613Z,12.16
2023-02-24T12:55:28.846Z,12.49
2023-02-24T12:58:09.165Z,12.62
2023-02-24T13:00:47.517Z,12.68
2023-02-24T13:03:33.513Z,13.08
2023-02-24T13:06:11.387Z,12.79
2023-02-24T13:08:52.582Z,12.39
2023-02-24T13:11:31.227Z,12.54
2023-02-24T13:14:07.917Z,12.33
2023-02-24T13:16:38.864Z,12.57
2023-02-24T13:19:18.864Z,13.06
2023-02-24T13:22:00.149Z,12.07
2023-02-24T13:24:30.856Z,11.92
2023-02-24T13:27:06.676Z,12.24
2023-02-24T13:29:45.703Z,12.27
2023-02-24T13:32:31.544Z,11.84
2023-02-24T13:35:02.143Z,12.53
2023-02-24T13:37:35.532Z,11.99
2023-02-24T13:40:24.295Z,11.78
2023-02-24T13:43:02.214Z,11.63
2023-02-24T13:45:32.174Z,12.11
2023-02-24T13:48:34.653Z,11.62
2023-02-24T13:51:20.737Z,11.75
2023-02-24T13:54:08.984Z,11.91
2023-02-24T13:56:43.754Z,11.99
2023-02-24T13:59:42.489Z,12.03
2023-02-24T14:02:16.495Z,12.29
2023-02-24T14:04:57.877Z,12.30
2023-02-24T14:07:29.540Z,12.18
2023-02-24T14:10:02.201Z,11.67
2023-02-24T14:12:33.382Z,12.35
2023-02-24T14:15:03.320Z,12.09
2023-02-24T14:17:34.101Z,12.02
2023-02-24T14:20:19.571Z,11.99
2023-02-24T14:22:49.796Z,12.17
2023-02-24T14:25:19.675Z,11.90
2023-02-24T14:27:52.426Z,12.13
2023-02-24T14:30:30.774Z,11.58
2023-02-24T14:33:00.059Z,11.72
2023-02-24T14:35:34.650Z,11.81
2023-02-24T14:38:03.812Z,11.92
2023-02-24T14:40:33.904Z,11.56
2023-02-24T14:43:04.726Z,11.69
2023-02-24T14:45:33.040Z,11.73
2023-02-24T14:48:01.292Z,11.70
2023-02-24T14:50:33.299Z,11.25
2023-02-24T14:53:06.431Z,11.64
2023-02-24T14:55:38.599Z,11.59
2023-02-24T14:58:14.910Z,11.52
2023-02-24T15:00:49.170Z,11.62
2023-02-24T15:03:22.880Z,12.23
2023-02-24T15:05:55.086Z,11.59
2023-02-24T15:08:38.500Z,11.82
2023-02-24T15:11:19.457Z,11.71
2023-02-24T15:13:51.231Z,12.12
2023-02-24T15:16:25.082Z,11.51
2023-02-24T15:18:55.132Z,11.70
2023-02-24T15:21:31.080Z,11.62
2023-02-24T15:24:00.908Z,11.81
2023-02-24T15:26:35.419Z,11.79
2023-02-24T15:29:15.560Z,11.73
2023-02-24T15:31:48.453Z,11.47
2023-02-24T15:34:20.862Z,11.59
2023-02-24T15:36:51.899Z,11.65
2023-02-24T15:39:24.068Z,11.46
2023-02-24T15:42:06.616Z,11.49
2023-02-24T15:44:36.998Z,11.35
2023-02-24T15:47:21.676Z,10.92
2023-02-24T15:49:50.328Z,11.16
2023-02-24T15:52:23.115Z,11.24
2023-02-24T15:54:52.045Z,11.34
2023-02-24T15:57:22.041Z,11.45
2023-02-24T15:59:50.902Z,11.30
2023-02-24T16:02:21.122Z,11.20
2023-02-24T16:04:50.302Z,11.17
2023-02-24T16:07:24.918Z,11.15
2023-02-24T16:09:55.437Z,11.19
2023-02-24T16:12:28.692Z,10.96
2023-02-24T16:15:03.074Z,11.04
2023-02-24T16:17:34.060Z,11.08
2023-02-24T16:20:08.396Z,10.80
2023-02-24T16:22:37.017Z,11.06
2023-02-24T16:25:06.423Z,10.62
2023-02-24T16:27:37.227Z,10.90
2023-02-24T16:30:06.810Z,10.84
2023-02-24T16:32:35.261Z,11.01
2023-02-24T16:35:04.027Z,10.74
2023-02-24T16:37:32.307Z,10.67
2023-02-24T16:40:02.739Z,10.70
2023-02-24T16:42:31.066Z,10.81
2023-02-24T16:45:00.777Z,10.75
2023-02-24T16:47:29.225Z,10.79
2023-02-24T16:49:57.686Z,10.65
2023-02-24T16:52:26.144Z,10.73
2023-02-24T16:54:54.510Z,10.61
2023-02-24T16:57:25.773Z,10.64
2023-02-24T16:59:54.316Z,10.81
2023-02-24T17:02:26.389Z,10.62
2023-02-24T17:04:54.866Z,10.61
2023-02-24T17:07:24.068Z,10.60
2023-02-24T17:09:52.479Z,10.27
2023-02-24T17:12:22.282Z,10.53
2023-02-24T17:14:50.701Z,10.55
2023-02-24T17:17:19.440Z,10.20
2023-02-24T17:19:49.176Z,10.37
2023-02-24T17:22:17.708Z,10.31
2023-02-24T17:24:46.121Z,10.30
2023-02-24T17:27:14.269Z,10.25
2023-02-24T17:29:42.345Z,10.43
2023-02-24T17:32:10.519Z,10.28
2023-02-24T17:34:38.717Z,10.21
2023-02-24T17:37:08.297Z,10.59
2023-02-24T17:39:36.559Z,10.13
2023-02-24T17:42:04.885Z,10.33
2023-02-24T17:44:33.619Z,10.25
2023-02-24T17:47:01.994Z,10.39
2023-02-24T17:49:30.350Z,10.76
2023-02-24T17:51:58.747Z,10.61
2023-02-24T17:54:28.523Z,10.36
2023-02-24T17:56:56.914Z,10.25
2023-02-24T17:59:25.355Z,10.42
2023-02-24T18:01:54.397Z,10.46
2023-02-24T18:04:22.799Z,10.45
2023-02-24T18:06:51.235Z,10.33
2023-02-24T18:09:19.800Z,10.37
2023-02-24T18:11:49.501Z,10.28
2023-02-24T18:14:17.796Z,10.32
2023-02-24T18:16:46.101Z,10.41
2023-02-24T18:19:14.558Z,9.92
2023-02-24T18:21:43.350Z,10.10
2023-02-24T18:24:12.011Z,10.18
2023-02-24T18:26:40.604Z,9.84
2023-02-24T18:29:10.395Z,10.09
2023-02-24T18:31:39.032Z,10.37
2023-02-24T18:34:07.543Z,10.41
2023-02-24T18:36:35.985Z,10.27
2023-02-24T18:39:04.883Z,10.03
2023-02-24T18:41:33.830Z,10.36
2023-02-24T18:44:02.141Z,10.36
2023-02-24T18:46:31.801Z,10.03
2023-02-24T18:49:00.351Z,10.03
2023-02-24T18:51:30.898Z,9.96
2023-02-24T18:54:00.279Z,9.83
2023-02-24T18:56:29.310Z,9.72
2023-02-24T18:58:58.364Z,10.05
2023-02-24T19:01:27.666Z,9.69
2023-02-24T19:03:57.394Z,9.93
2023-02-24T19:06:26.913Z,9.99
2023-02-24T19:08:57.307Z,9.61
2023-02-24T19:11:25.568Z,10.03
2023-02-24T19:13:54.165Z,9.88
2023-02-24T19:16:25.014Z,9.70
2023-02-24T19:18:54.966Z,9.69
2023-02-24T19:21:26.184Z,9.77
2023-02-24T19:23:54.635Z,9.86
2023-02-24T19:26:24.315Z,9.88
2023-02-24T19:28:53.013Z,9.73
2023-02-24T19:31:21.900Z,9.96
2023-02-24T19:33:52.255Z,9.93
2023-02-24T19:36:20.582Z,9.83
2023-02-24T19:38:50.223Z,9.94
2023-02-24T19:41:18.412Z,10.04
2023-02-24T19:43:46.400Z,9.60
2023-02-24T19:46:15.297Z,9.74
2023-02-24T19:48:43.607Z,10.09
2023-02-24T19:51:13.455Z,9.54
2023-02-24T19:53:41.781Z,9.70
2023-02-24T19:56:11.407Z,9.60
2023-02-24T19:58:39.512Z,9.82
2023-02-24T20:01:10.184Z,9.64
2023-02-24T20:03:38.799Z,9.96
2023-02-24T20:06:08.026Z,9.79
2023-02-24T20:08:36.365Z,9.74
2023-02-24T20:11:05.574Z,9.95
2023-02-24T20:13:35.062Z,9.87
2023-02-24T20:16:07.323Z,9.76
2023-02-24T20:18:36.171Z,9.91
2023-02-24T20:21:04.715Z,9.75
2023-02-24T20:23:33.411Z,9.85
2023-02-24T20:26:02.414Z,9.82
2023-02-24T20:28:30.723Z,9.73
2023-02-24T20:31:00.867Z,9.85
2023-02-24T20:33:28.982Z,9.77
2023-02-24T20:35:57.065Z,9.77
2023-02-24T20:38:29.055Z,9.75
2023-02-24T20:40:59.893Z,9.62
2023-02-24T20:43:28.320Z,9.81
2023-02-24T20:45:56.470Z,9.78
2023-02-24T20:48:26.013Z,9.04
2023-02-24T20:50:54.065Z,8.55
2023-02-24T20:53:22.317Z,8.48
2023-02-24T20:55:50.544Z,7.55
2023-02-24T20:58:18.805Z,7.75
2023-02-24T21:00:47.143Z,7.38
2023-02-24T21:03:15.731Z,7.28
2023-02-24T21:05:45.432Z,7.42
2023-02-24T21:08:13.764Z,7.52
2023-02-24T21:10:44.940Z,7.33
2023-02-24T21:13:13.514Z,7.36
2023-02-24T21:15:41.871Z,7.38
2023-02-24T21:18:12.136Z,6.93
2023-02-24T21:20:40.474Z,7.06
2023-02-24T21:23:10.369Z,6.72
2023-02-24T21:25:38.784Z,6.75
2023-02-24T21:28:07.104Z,6.77
2023-02-24T21:30:35.437Z,6.25
2023-02-24T21:33:03.713Z,6.62
2023-02-24T21:35:31.997Z,6.68
2023-02-24T21:38:00.324Z,6.12
2023-02-24T21:40:30.009Z,6.33
2023-02-24T21:42:58.513Z,6.18
2023-02-24T21:45:27.620Z,6.33
2023-02-24T21:47:56.725Z,6.49
2023-02-24T21:50:25.235Z,6.59
2023-02-24T21:52:54.274Z,6.72
2023-02-24T21:55:23.394Z,6.47
2023-02-24T21:57:53.087Z,6.58
2023-02-24T22:02:37.084Z,6.66
2023-02-24T22:05:06.105Z,7.12
2023-02-24T22:07:36.954Z,7.07
2023-02-24T22:10:06.437Z,7.06
2023-02-24T22:12:34.752Z,7.30
2023-02-24T22:15:03.106Z,7.41
2023-02-24T22:17:31.373Z,7.02
2023-02-24T22:20:01.121Z,7.10
2023-02-24T22:22:29.436Z,7.20
2023-02-24T22:24:57.787Z,7.07
2023-02-24T22:27:26.027Z,7.06
2023-02-24T22:29:55.002Z,7.29
2023-02-24T22:32:23.738Z,7.33
2023-02-24T22:34:57.152Z,7.16
2023-02-24T22:37:26.841Z,7.57
2023-02-24T22:39:55.214Z,7.42
2023-02-24T22:42:23.520Z,7.89
2023-02-24T22:44:52.729Z,7.45
2023-02-24T22:47:21.443Z,7.36
2023-02-24T22:49:49.782Z,7.49
2023-02-24T22:52:18.372Z,7.84
2023-02-24T22:54:48.783Z,7.60
2023-02-24T22:57:17.286Z,7.82
2023-02-24T22:59:45.933Z,7.63
2023-02-24T23:02:15.778Z,7.80
2023-02-24T23:04:44.176Z,7.31
2023-02-24T23:07:12.657Z,7.42
2023-02-24T23:09:41.929Z,7.22
2023-02-24T23:12:16.255Z,7.05
2023-02-24T23:14:50.475Z,7.36
2023-02-24T23:17:18.820Z,7.36
2023-02-24T23:19:47.207Z,7.42
2023-02-24T23:22:16.172Z,7.43
2023-02-24T23:24:44.668Z,7.67
2023-02-24T23:27:14.346Z,7.80
2023-02-24T23:29:44.864Z,7.46
2023-02-24T23:32:13.522Z,7.10
2023-02-24T23:37:24.244Z,7.51
2023-02-24T23:39:55.328Z,7.55
2023-02-24T23:42:25.126Z,7.56
2023-02-24T23:44:53.946Z,7.33
2023-02-24T23:47:22.338Z,7.44
2023-02-24T23:49:56.071Z,7.45
2023-02-24T23:52:24.734Z,7.28
2023-02-24T23:54:54.047Z,7.37
2023-02-24T23:57:23.006Z,7.33
2023-02-24T23:59:53.108Z,7.47
